Time;durP1;ratioP1;P1;durP2;ratioP2;P2;SDS_P1;SDS_P2;PMS_P1;PMS_P2;Temp;Humidity;BMP_temperature;BMP_pressure;BME280_temperature;BME280_humidity;BME280_pressure;Samples;Min_cycle;Max_cycle;Signal;HPM_P1;HPM_P2
2021/09/27 00:01:38;;;;;;;2.45;2.35;;;15.80;79.10;;;;;;5010216;28;20209;-78
2021/09/27 00:04:05;;;;;;;3.70;2.55;;;15.80;78.80;;;;;;5009639;28;20191;-77
2021/09/27 00:06:30;;;;;;;3.10;2.20;;;15.70;78.90;;;;;;5012777;28;20596;-77
2021/09/27 00:08:56;;;;;;;2.60;2.40;;;15.70;79.40;;;;;;5010013;28;20185;-77
2021/09/27 00:11:24;;;;;;;2.63;2.42;;;15.70;80.20;;;;;;5013969;28;20213;-77
2021/09/27 00:13:53;;;;;;;2.63;2.42;;;15.70;79.50;;;;;;5016170;28;20274;-77
2021/09/27 00:16:20;;;;;;;3.85;2.15;;;15.70;80.00;;;;;;5011483;28;20181;-77
2021/09/27 00:18:46;;;;;;;3.33;2.78;;;15.70;79.70;;;;;;5007234;28;20185;-77
2021/09/27 00:21:21;;;;;;;2.30;2.20;;;15.60;80.30;;;;;;5016238;28;20181;-77
2021/09/27 00:23:48;;;;;;;3.65;1.90;;;15.60;80.40;;;;;;5008961;28;20202;-77
2021/09/27 00:26:14;;;;;;;2.35;2.20;;;15.60;79.90;;;;;;5012239;28;20769;-77
2021/09/27 00:28:40;;;;;;;4.20;2.65;;;15.60;80.80;;;;;;5013119;28;20674;-77
2021/09/27 00:31:06;;;;;;;4.57;2.33;;;15.50;80.30;;;;;;5014309;28;20248;-78
2021/09/27 00:33:33;;;;;;;1.90;1.90;;;15.40;80.90;;;;;;5006464;28;20278;-77
2021/09/27 00:35:59;;;;;;;1.90;1.80;;;15.40;80.40;;;;;;5005470;28;20651;-77
2021/09/27 00:38:26;;;;;;;2.40;2.20;;;15.40;81.30;;;;;;5010306;28;20207;-77
2021/09/27 00:40:59;;;;;;;1.83;1.83;;;15.40;80.90;;;;;;5012475;28;21458;-78
2021/09/27 00:43:26;;;;;;;3.63;1.92;;;15.40;80.50;;;;;;5006575;28;20182;-78
2021/09/27 00:45:59;;;;;;;1.98;1.88;;;15.30;81.10;;;;;;5011988;28;20732;-77
2021/09/27 00:48:26;;;;;;;2.40;2.30;;;15.30;80.90;;;;;;5008350;28;21805;-77
2021/09/27 00:50:57;;;;;;;2.88;2.67;;;15.30;81.50;;;;;;5014792;28;20181;-77
2021/09/27 00:53:29;;;;;;;2.80;2.70;;;15.30;81.20;;;;;;5011480;28;20216;-77
2021/09/27 00:55:57;;;;;;;2.70;2.50;;;15.30;80.70;;;;;;5007581;28;20196;-77
2021/09/27 00:58:24;;;;;;;3.40;2.90;;;15.30;81.10;;;;;;5011946;28;20563;-77
2021/09/27 01:00:51;;;;;;;2.30;2.15;;;15.30;80.90;;;;;;5016878;28;20187;-77
2021/09/27 01:03:18;;;;;;;2.97;2.78;;;15.30;81.60;;;;;;5012945;28;20967;-77
2021/09/27 01:05:55;;;;;;;2.70;2.50;;;15.30;81.60;;;;;;5011736;28;20212;-77
2021/09/27 01:08:36;;;;;;;2.95;2.83;;;15.30;81.60;;;;;;5009811;28;20220;-77
2021/09/27 01:11:25;;;;;;;3.05;2.45;;;15.30;81.50;;;;;;5013041;28;20602;-78
2021/09/27 01:14:17;;;;;;;3.08;2.85;;;15.30;81.90;;;;;;5008149;28;20276;-78
2021/09/27 01:16:59;;;;;;;2.88;2.38;;;15.20;82.00;;;;;;5020933;28;20200;-77
2021/09/27 01:19:50;;;;;;;2.70;2.60;;;15.20;82.10;;;;;;5021029;28;20200;-78
2021/09/27 01:22:30;;;;;;;3.13;2.85;;;15.20;81.60;;;;;;4990528;28;20198;-77
2021/09/27 01:25:12;;;;;;;2.53;2.33;;;15.20;81.70;;;;;;4991853;28;20196;-77
2021/09/27 01:28:25;;;;;;;4.13;2.55;;;15.20;81.90;;;;;;4991535;28;20236;-77
2021/09/27 01:31:16;;;;;;;2.30;2.20;;;15.10;81.50;;;;;;4930678;29;20279;-77
2021/09/27 01:33:51;;;;;;;3.65;2.55;;;15.10;81.50;;;;;;4927945;29;20286;-78
2021/09/27 01:36:34;;;;;;;2.83;2.63;;;15.10;82.70;;;;;;4928291;29;20201;-77
2021/09/27 01:39:11;;;;;;;2.05;1.95;;;15.10;82.40;;;;;;4926949;29;20195;-77
2021/09/27 01:41:46;;;;;;;2.95;2.75;;;15.00;82.30;;;;;;4926487;29;20279;-77
2021/09/27 01:44:21;;;;;;;2.22;2.22;;;15.00;82.70;;;;;;4926643;29;20328;-76
2021/09/27 01:46:47;;;;;;;2.38;2.05;;;15.00;82.90;;;;;;4927641;29;20825;-77
2021/09/27 01:49:33;;;;;;;2.70;2.00;;;15.00;82.90;;;;;;4928487;29;20192;-77
2021/09/27 01:52:01;;;;;;;2.28;2.17;;;14.90;82.60;;;;;;4928278;29;20192;-77
2021/09/27 01:54:42;;;;;;;2.85;2.30;;;14.90;83.10;;;;;;4885349;29;20636;-78
2021/09/27 01:57:24;;;;;;;3.55;2.58;;;14.90;82.30;;;;;;4875307;29;20189;-78
2021/09/27 02:00:11;;;;;;;2.85;2.65;;;14.80;83.30;;;;;;4915321;29;20711;-78
2021/09/27 02:02:45;;;;;;;2.42;2.33;;;14.80;82.60;;;;;;5002448;28;20206;-78
2021/09/27 02:05:32;;;;;;;3.17;2.97;;;14.80;83.10;;;;;;5007404;28;20749;-78
2021/09/27 02:08:05;;;;;;;3.00;2.65;;;14.70;83.30;;;;;;5012342;28;20254;-78
2021/09/27 02:11:05;;;;;;;4.30;2.63;;;14.70;83.10;;;;;;5012658;28;20189;-78
2021/09/27 02:13:51;;;;;;;3.08;2.75;;;14.70;83.00;;;;;;5027181;28;20197;-78
2021/09/27 02:16:39;;;;;;;3.13;2.90;;;14.70;83.20;;;;;;5030577;28;20229;-78
2021/09/27 02:19:28;;;;;;;2.38;2.25;;;14.80;83.50;;;;;;5028390;28;20216;-78
2021/09/27 02:21:57;;;;;;;3.05;2.65;;;14.80;83.50;;;;;;5032311;28;20229;-78
2021/09/27 02:24:38;;;;;;;3.50;2.50;;;14.70;83.70;;;;;;5027739;28;20199;-78
2021/09/27 02:27:04;;;;;;;2.50;2.25;;;14.80;83.50;;;;;;5029661;28;20219;-78
2021/09/27 02:29:31;;;;;;;2.22;2.20;;;14.70;83.80;;;;;;5030031;28;20179;-79
2021/09/27 02:32:00;;;;;;;2.90;2.80;;;14.70;83.60;;;;;;5032016;28;20180;-79
2021/09/27 02:35:00;;;;;;;2.70;2.47;;;14.70;83.50;;;;;;5029108;28;20203;-78
2021/09/27 02:37:42;;;;;;;3.00;2.80;;;14.60;84.20;;;;;;4928355;29;20239;-78
2021/09/27 02:40:43;;;;;;;2.80;2.60;;;14.70;83.70;;;;;;4932025;29;20677;-78
2021/09/27 02:43:11;;;;;;;2.60;2.47;;;14.60;84.00;;;;;;4906160;29;20788;-78
2021/09/27 02:45:39;;;;;;;3.17;2.88;;;14.60;84.00;;;;;;4905815;29;20758;-77
2021/09/27 02:48:12;;;;;;;5.88;2.80;;;14.60;84.00;;;;;;4906651;29;20207;-77
2021/09/27 02:50:43;;;;;;;2.75;2.55;;;14.60;84.10;;;;;;4878378;29;20194;-77
2021/09/27 02:53:10;;;;;;;3.22;3.03;;;14.60;84.20;;;;;;4867900;29;20285;-77
2021/09/27 02:55:44;;;;;;;3.15;2.92;;;14.50;84.50;;;;;;4869156;29;20206;-77
2021/09/27 02:58:44;;;;;;;3.08;2.92;;;14.50;85.10;;;;;;4869804;29;20297;-77
2021/09/27 03:01:31;;;;;;;2.88;2.78;;;14.50;85.60;;;;;;4871051;29;20724;-77
2021/09/27 03:04:02;;;;;;;2.83;2.67;;;14.50;85.00;;;;;;4868565;29;20602;-77
2021/09/27 03:06:40;;;;;;;2.95;2.80;;;14.40;84.90;;;;;;4869517;29;20234;-78
2021/09/27 03:09:28;;;;;;;3.03;2.83;;;14.40;84.60;;;;;;4868893;29;21593;-77
2021/09/27 03:12:21;;;;;;;2.75;2.58;;;14.40;85.00;;;;;;4869316;29;20217;-77
2021/09/27 03:15:19;;;;;;;3.08;2.88;;;14.40;85.20;;;;;;4908552;29;20642;-78
2021/09/27 03:18:03;;;;;;;3.42;2.47;;;14.30;85.50;;;;;;4991045;28;20287;-77
2021/09/27 03:20:45;;;;;;;2.72;2.60;;;14.30;85.60;;;;;;5014636;28;20183;-77
2021/09/27 03:23:46;;;;;;;3.20;2.30;;;14.30;85.20;;;;;;5012466;28;20723;-77
2021/09/27 03:26:14;;;;;;;2.92;2.72;;;14.20;85.00;;;;;;5007922;28;20231;-79
2021/09/27 03:29:11;;;;;;;4.15;3.45;;;14.20;85.40;;;;;;5009319;28;20182;-78
2021/09/27 03:31:52;;;;;;;6.10;2.75;;;14.10;85.90;;;;;;5009953;28;20275;-78
2021/09/27 03:34:17;;;;;;;2.95;2.72;;;14.10;85.40;;;;;;5012619;28;20276;-77
2021/09/27 03:36:50;;;;;;;3.72;3.15;;;14.10;85.90;;;;;;5011837;28;20687;-77
2021/09/27 03:39:37;;;;;;;3.28;3.08;;;14.10;85.40;;;;;;5015579;28;20192;-76
2021/09/27 03:42:21;;;;;;;3.00;2.75;;;14.00;85.20;;;;;;5012849;28;20579;-79
2021/09/27 03:44:59;;;;;;;3.42;2.75;;;14.00;85.40;;;;;;5012732;28;20175;-79
2021/09/27 03:47:33;;;;;;;3.10;2.40;;;14.00;85.70;;;;;;5010201;28;20218;-77
2021/09/27 03:50:06;;;;;;;2.97;2.83;;;13.90;85.80;;;;;;5008570;28;20196;-78
2021/09/27 03:52:55;;;;;;;3.13;2.90;;;13.90;85.60;;;;;;5016392;28;20672;-77
2021/09/27 03:55:40;;;;;;;2.67;2.50;;;13.90;85.80;;;;;;5005260;28;20191;-76
2021/09/27 03:58:22;;;;;;;3.55;2.28;;;13.90;85.90;;;;;;5013384;28;20195;-76
2021/09/27 04:01:06;;;;;;;6.70;2.80;;;13.80;86.20;;;;;;5013667;28;20188;-76
2021/09/27 04:04:09;;;;;;;2.55;2.42;;;13.80;85.60;;;;;;5010198;28;20201;-76
2021/09/27 04:06:48;;;;;;;2.65;2.55;;;13.80;85.60;;;;;;5011624;28;20659;-76
2021/09/27 04:09:42;;;;;;;3.00;2.85;;;13.80;85.80;;;;;;5007896;28;20591;-76
2021/09/27 04:12:37;;;;;;;2.60;2.50;;;13.70;86.10;;;;;;5011893;28;20236;-76
2021/09/27 04:15:38;;;;;;;2.85;2.40;;;13.70;86.20;;;;;;5008373;28;20242;-76
2021/09/27 04:18:13;;;;;;;3.13;2.95;;;13.70;86.10;;;;;;5013937;28;20193;-76
2021/09/27 04:20:57;;;;;;;4.57;3.20;;;13.60;87.40;;;;;;5006189;28;20192;-76
2021/09/27 04:24:10;;;;;;;3.30;3.10;;;13.60;87.80;;;;;;5006985;28;20188;-76
2021/09/27 04:26:54;;;;;;;2.42;2.22;;;13.60;86.70;;;;;;5019259;28;20218;-76
2021/09/27 04:29:38;;;;;;;2.70;2.60;;;13.60;87.10;;;;;;5018077;28;20246;-77
2021/09/27 04:32:50;;;;;;;5.85;3.13;;;13.60;86.50;;;;;;5017182;28;20234;-72
2021/09/27 04:35:24;;;;;;;4.10;2.97;;;13.60;87.30;;;;;;4955772;28;20226;-71
2021/09/27 04:37:50;;;;;;;3.92;3.10;;;13.60;86.60;;;;;;4958512;28;20202;-71
2021/09/27 04:40:18;;;;;;;2.78;2.60;;;13.60;87.20;;;;;;4961976;28;20198;-72
2021/09/27 04:43:21;;;;;;;3.40;3.20;;;13.60;87.00;;;;;;4962753;28;20656;-71
2021/09/27 04:46:16;;;;;;;3.08;2.88;;;13.70;87.20;;;;;;4932223;29;20248;-72
2021/09/27 04:48:50;;;;;;;6.55;3.75;;;13.70;86.30;;;;;;4932926;29;20192;-75
2021/09/27 04:51:31;;;;;;;5.78;2.70;;;13.80;87.10;;;;;;4934724;29;20384;-74
2021/09/27 04:54:15;;;;;;;2.92;2.83;;;13.80;86.40;;;;;;4928444;29;20214;-74
2021/09/27 04:57:03;;;;;;;4.07;3.80;;;13.90;86.50;;;;;;4930576;29;20244;-73
2021/09/27 04:59:44;;;;;;;3.60;3.30;;;13.90;86.40;;;;;;4931641;29;20286;-76
2021/09/27 05:02:25;;;;;;;3.67;3.17;;;13.90;86.80;;;;;;4921789;29;20204;-75
2021/09/27 05:05:32;;;;;;;3.60;3.25;;;14.00;86.40;;;;;;4904224;29;20208;-74
2021/09/27 05:08:09;;;;;;;3.63;3.13;;;14.00;85.90;;;;;;4878204;29;20206;-74
2021/09/27 05:11:13;;;;;;;5.38;3.38;;;14.10;86.00;;;;;;4889967;28;20200;-76
2021/09/27 05:13:57;;;;;;;6.68;4.18;;;14.10;85.90;;;;;;4873876;29;20285;-76
2021/09/27 05:16:55;;;;;;;4.95;3.50;;;14.20;86.00;;;;;;4869501;29;20207;-76
2021/09/27 05:19:39;;;;;;;5.00;3.90;;;14.30;85.90;;;;;;4871034;29;20280;-75
2021/09/27 05:22:13;;;;;;;6.35;3.78;;;14.30;86.20;;;;;;4868385;29;20201;-75
2021/09/27 05:25:11;;;;;;;7.13;3.92;;;14.30;86.30;;;;;;4889800;29;20643;-73
2021/09/27 05:27:37;;;;;;;5.43;4.05;;;14.30;86.30;;;;;;4887904;29;20228;-74
2021/09/27 05:30:25;;;;;;;4.80;4.28;;;14.30;86.30;;;;;;4873318;29;20315;-73
2021/09/27 05:32:57;;;;;;;7.60;4.03;;;14.30;86.40;;;;;;4889955;29;20698;-73
2021/09/27 05:35:50;;;;;;;5.78;4.10;;;14.30;86.80;;;;;;4889274;29;20203;-73
2021/09/27 05:38:36;;;;;;;5.85;4.45;;;14.30;86.70;;;;;;4888193;29;20680;-72
2021/09/27 05:41:02;;;;;;;6.60;4.57;;;14.30;86.20;;;;;;4888521;29;20204;-75
2021/09/27 05:43:36;;;;;;;4.82;4.43;;;14.40;86.50;;;;;;4904587;29;20192;-74
2021/09/27 05:46:13;;;;;;;8.23;5.75;;;14.50;86.10;;;;;;4946907;28;20763;-75
2021/09/27 05:48:43;;;;;;;6.32;5.35;;;14.50;85.70;;;;;;4946647;28;20210;-74
2021/09/27 05:51:47;;;;;;;5.35;4.90;;;14.60;85.70;;;;;;4949308;28;21038;-73
2021/09/27 05:54:43;;;;;;;6.40;4.78;;;14.60;86.10;;;;;;4973238;28;20186;-74
2021/09/27 05:57:27;;;;;;;6.03;5.28;;;14.70;85.70;;;;;;4973934;28;20198;-75
2021/09/27 06:00:17;;;;;;;5.93;5.40;;;14.80;85.20;;;;;;4970384;28;20189;-74
2021/09/27 06:02:56;;;;;;;10.48;5.47;;;14.80;85.10;;;;;;4984129;28;20200;-74
2021/09/27 06:05:35;;;;;;;4.55;4.22;;;14.90;85.60;;;;;;4996618;28;20611;-74
2021/09/27 06:08:09;;;;;;;4.85;4.25;;;15.00;84.70;;;;;;4992278;28;20284;-74
2021/09/27 06:10:45;;;;;;;4.78;4.43;;;15.00;84.80;;;;;;4995648;28;20193;-74
2021/09/27 06:13:17;;;;;;;7.38;4.80;;;15.10;84.40;;;;;;4997159;28;20185;-74
2021/09/27 06:16:01;;;;;;;8.60;4.65;;;15.20;84.30;;;;;;4996646;28;20201;-74
2021/09/27 06:18:35;;;;;;;4.63;4.30;;;15.30;84.00;;;;;;4993125;28;20841;-74
2021/09/27 06:21:50;;;;;;;5.00;4.45;;;15.40;83.60;;;;;;4989005;28;20315;-73
2021/09/27 06:25:03;;;;;;;4.43;3.97;;;15.50;84.70;;;;;;4987978;28;20200;-74
2021/09/27 06:28:01;;;;;;;5.78;5.32;;;15.60;85.00;;;;;;4923886;29;20410;-74
2021/09/27 06:31:00;;;;;;;8.82;5.32;;;15.80;84.20;;;;;;4924261;29;20279;-74
2021/09/27 06:33:44;;;;;;;6.15;5.10;;;15.90;83.70;;;;;;4925927;29;20200;-73
2021/09/27 06:36:16;;;;;;;5.32;4.68;;;16.10;83.20;;;;;;4908686;29;20192;-75
2021/09/27 06:38:42;;;;;;;6.18;5.22;;;16.20;83.60;;;;;;4924109;29;20775;-75
2021/09/27 06:41:14;;;;;;;5.80;5.18;;;16.40;83.70;;;;;;4923893;29;20864;-75
2021/09/27 06:43:40;;;;;;;7.57;4.88;;;16.50;82.70;;;;;;4924939;29;20188;-74
2021/09/27 06:46:06;;;;;;;7.22;5.35;;;16.60;82.70;;;;;;4922936;29;20250;-75
2021/09/27 06:48:32;;;;;;;8.77;5.57;;;16.80;82.70;;;;;;4925115;29;20268;-75
2021/09/27 06:50:58;;;;;;;10.07;5.68;;;16.90;82.10;;;;;;4924257;29;20244;-75
2021/09/27 06:53:25;;;;;;;7.95;5.50;;;17.10;81.40;;;;;;4925171;29;20207;-75
2021/09/27 06:55:52;;;;;;;7.97;4.78;;;17.20;81.20;;;;;;4925310;29;20199;-75
2021/09/27 06:58:18;;;;;;;6.60;5.22;;;17.40;81.20;;;;;;4925813;29;20200;-75
2021/09/27 07:00:44;;;;;;;8.85;6.70;;;17.50;80.30;;;;;;4960743;28;20553;-75
2021/09/27 07:03:10;;;;;;;10.00;6.68;;;17.60;79.90;;;;;;5010371;28;20687;-75
2021/09/27 07:05:35;;;;;;;6.55;6.05;;;17.70;78.70;;;;;;5014731;28;20184;-74
2021/09/27 07:08:02;;;;;;;6.15;5.65;;;17.80;79.00;;;;;;5013737;28;20177;-75
2021/09/27 07:10:28;;;;;;;5.93;5.03;;;17.90;79.20;;;;;;5009246;28;20185;-75
2021/09/27 07:12:54;;;;;;;5.45;4.88;;;18.00;79.00;;;;;;5011233;28;20639;-74
2021/09/27 07:15:20;;;;;;;6.63;5.00;;;18.10;79.10;;;;;;5008719;28;20180;-73
2021/09/27 07:17:46;;;;;;;6.55;5.10;;;18.20;79.10;;;;;;5010729;28;20908;-75
2021/09/27 07:20:17;;;;;;;8.48;5.30;;;18.30;78.60;;;;;;5015846;28;20678;-75
2021/09/27 07:22:43;;;;;;;5.82;4.78;;;18.40;78.10;;;;;;5015064;28;20196;-75
2021/09/27 07:25:11;;;;;;;4.85;4.40;;;18.60;78.50;;;;;;5005880;28;20573;-75
2021/09/27 07:27:37;;;;;;;6.15;4.78;;;18.70;78.50;;;;;;5008286;28;20213;-75
2021/09/27 07:30:06;;;;;;;6.05;4.65;;;18.90;78.30;;;;;;5017214;28;20196;-75
2021/09/27 07:32:32;;;;;;;8.77;5.00;;;19.10;78.00;;;;;;5009066;28;20181;-75
2021/09/27 07:34:58;;;;;;;8.18;5.18;;;19.30;77.70;;;;;;5016095;28;20184;-74
2021/09/27 07:37:24;;;;;;;5.13;4.50;;;19.50;77.60;;;;;;5007808;28;20200;-75
2021/09/27 07:39:49;;;;;;;7.30;5.35;;;19.80;77.20;;;;;;5010585;28;20188;-75
2021/09/27 07:42:15;;;;;;;5.50;5.00;;;20.10;76.50;;;;;;5014537;28;20211;-75
2021/09/27 07:44:41;;;;;;;5.25;4.75;;;20.50;75.50;;;;;;5010647;28;20180;-73
2021/09/27 07:47:07;;;;;;;7.72;5.50;;;20.90;74.80;;;;;;5010851;28;20378;-75
2021/09/27 07:49:32;;;;;;;7.65;5.93;;;21.30;73.90;;;;;;5011103;28;20187;-76
2021/09/27 07:51:58;;;;;;;6.45;5.90;;;21.70;73.70;;;;;;5011937;28;20193;-73
2021/09/27 07:54:24;;;;;;;6.32;5.70;;;22.00;72.90;;;;;;5009590;28;20658;-74
2021/09/27 07:56:50;;;;;;;8.27;6.65;;;22.30;71.50;;;;;;5010230;28;20188;-74
2021/09/27 07:59:17;;;;;;;5.80;5.22;;;22.50;70.70;;;;;;5011561;28;20187;-74
2021/09/27 08:01:42;;;;;;;6.70;6.10;;;22.60;70.40;;;;;;5015686;28;20184;-74
2021/09/27 08:04:09;;;;;;;12.00;5.53;;;22.70;70.00;;;;;;5010486;28;20185;-74
2021/09/27 08:06:38;;;;;;;6.72;6.22;;;22.90;69.50;;;;;;5010252;28;20216;-75
2021/09/27 08:09:04;;;;;;;8.30;6.40;;;23.20;69.30;;;;;;5013979;28;20738;-75
2021/09/27 08:11:30;;;;;;;8.30;6.32;;;23.80;69.50;;;;;;5014972;28;20196;-75
2021/09/27 08:13:57;;;;;;;8.25;5.88;;;24.40;68.00;;;;;;5016290;28;21140;-75
2021/09/27 08:16:23;;;;;;;7.82;5.22;;;25.10;66.80;;;;;;5010019;28;20200;-74
2021/09/27 08:18:49;;;;;;;7.88;6.18;;;25.90;66.30;;;;;;5018133;28;20193;-76
2021/09/27 08:21:17;;;;;;;8.07;6.50;;;26.80;65.40;;;;;;5015284;28;20220;-75
2021/09/27 08:23:43;;;;;;;6.85;6.15;;;27.50;63.80;;;;;;5014805;28;20181;-76
2021/09/27 08:26:09;;;;;;;6.65;5.93;;;28.30;63.20;;;;;;5015402;28;20291;-75
2021/09/27 08:28:38;;;;;;;7.95;5.95;;;28.90;58.70;;;;;;5013815;28;20188;-76
2021/09/27 08:31:10;;;;;;;5.95;5.40;;;29.30;59.40;;;;;;5017979;28;20630;-74
2021/09/27 08:33:37;;;;;;;5.97;5.45;;;29.70;58.60;;;;;;5018488;28;20192;-76
2021/09/27 08:36:05;;;;;;;7.93;5.32;;;30.10;58.30;;;;;;5018865;28;20235;-74
2021/09/27 08:38:37;;;;;;;4.88;4.50;;;30.60;57.70;;;;;;5013638;28;20647;-76
2021/09/27 08:41:21;;;;;;;6.82;4.65;;;31.00;57.40;;;;;;5018061;28;20295;-76
2021/09/27 08:43:57;;;;;;;5.10;4.90;;;31.60;55.80;;;;;;5018245;28;20328;-76
2021/09/27 08:46:29;;;;;;;5.15;4.60;;;31.90;55.40;;;;;;5018396;28;20240;-76
2021/09/27 08:49:16;;;;;;;4.50;4.13;;;32.40;55.80;;;;;;5016403;28;20202;-76
2021/09/27 08:51:42;;;;;;;5.18;4.60;;;32.70;53.60;;;;;;5015530;28;20188;-76
2021/09/27 08:54:14;;;;;;;4.65;4.28;;;32.90;54.60;;;;;;5011122;28;20193;-75
2021/09/27 08:56:49;;;;;;;5.28;3.95;;;33.20;54.30;;;;;;5013547;28;20237;-76
2021/09/27 08:59:43;;;;;;;6.45;4.15;;;33.60;54.30;;;;;;5012580;28;21110;-76
2021/09/27 09:02:21;;;;;;;9.80;4.25;;;34.20;52.10;;;;;;5009907;28;20192;-76
2021/09/27 09:05:00;;;;;;;5.50;4.13;;;34.80;53.10;;;;;;5013837;28;20737;-76
2021/09/27 09:07:27;;;;;;;3.90;3.70;;;35.10;50.70;;;;;;5014688;28;20208;-75
2021/09/27 09:10:03;;;;;;;5.10;4.45;;;34.70;50.50;;;;;;5020379;28;20188;-76
2021/09/27 09:12:36;;;;;;;4.60;4.20;;;33.70;49.20;;;;;;5013324;28;20250;-75
2021/09/27 09:15:23;;;;;;;5.63;3.88;;;32.40;51.20;;;;;;5014273;28;20192;-75
2021/09/27 09:18:04;;;;;;;4.45;4.00;;;31.50;52.40;;;;;;5014368;28;20196;-76
2021/09/27 09:20:36;;;;;;;4.18;3.72;;;31.00;54.90;;;;;;5014352;28;20275;-75
2021/09/27 09:23:02;;;;;;;3.80;3.55;;;30.60;55.90;;;;;;5011907;28;20185;-76
2021/09/27 09:25:33;;;;;;;6.45;3.85;;;30.40;55.70;;;;;;5009953;28;20286;-76
2021/09/27 09:28:03;;;;;;;3.83;3.53;;;30.20;55.80;;;;;;5011866;28;20634;-76
2021/09/27 09:30:51;;;;;;;4.30;4.00;;;30.00;55.80;;;;;;5010435;28;20181;-76
2021/09/27 09:33:38;;;;;;;4.05;3.78;;;29.80;55.80;;;;;;5011860;28;20220;-76
2021/09/27 09:36:06;;;;;;;6.97;3.63;;;29.80;56.30;;;;;;5009646;28;20275;-76
2021/09/27 09:38:36;;;;;;;10.00;4.15;;;30.00;57.20;;;;;;5010014;28;20698;-76
2021/09/27 09:41:04;;;;;;;5.65;4.00;;;30.50;56.40;;;;;;5009113;28;20726;-76
2021/09/27 09:43:43;;;;;;;5.88;4.63;;;30.90;55.20;;;;;;5011079;28;20189;-76
2021/09/27 09:46:30;;;;;;;3.67;3.47;;;31.40;53.80;;;;;;5010763;28;20291;-76
2021/09/27 09:49:09;;;;;;;3.80;3.50;;;31.90;53.80;;;;;;5013396;28;20185;-76
2021/09/27 09:51:59;;;;;;;5.88;3.80;;;32.50;53.10;;;;;;5014184;28;20190;-75
2021/09/27 09:54:27;;;;;;;3.95;3.28;;;33.10;51.90;;;;;;5017847;28;20185;-76
2021/09/27 09:57:07;;;;;;;4.78;3.88;;;33.80;52.60;;;;;;5011357;28;20231;-76
2021/09/27 09:59:37;;;;;;;10.88;4.07;;;34.40;52.20;;;;;;5019376;28;20195;-75
2021/09/27 10:02:07;;;;;;;4.22;3.80;;;35.10;50.70;;;;;;5012769;28;20582;-76
2021/09/27 10:04:39;;;;;;;3.53;3.42;;;35.50;49.00;;;;;;5016489;28;20181;-76
2021/09/27 10:07:22;;;;;;;3.33;3.22;;;35.90;49.30;;;;;;5010719;28;20720;-76
2021/09/27 10:09:58;;;;;;;4.20;3.92;;;36.50;48.70;;;;;;5019703;28;20649;-76
2021/09/27 10:12:43;;;;;;;4.53;4.13;;;37.10;48.20;;;;;;5011050;28;20214;-75
2021/09/27 10:15:33;;;;;;;5.10;4.35;;;37.70;46.40;;;;;;5013024;28;20181;-76
2021/09/27 10:18:39;;;;;;;4.18;3.97;;;38.30;45.90;;;;;;5015984;28;20684;-76
2021/09/27 10:21:24;;;;;;;4.07;3.78;;;38.90;45.00;;;;;;4993295;28;20375;-76
2021/09/27 10:23:55;;;;;;;4.82;4.35;;;39.50;46.30;;;;;;5003230;28;20193;-76
2021/09/27 10:26:39;;;;;;;4.32;3.97;;;39.60;45.70;;;;;;4994519;28;20212;-76
2021/09/27 10:29:12;;;;;;;3.80;3.65;;;39.80;44.10;;;;;;4996146;28;20581;-76
2021/09/27 10:31:41;;;;;;;5.20;3.90;;;40.00;45.80;;;;;;4995097;28;20248;-76
2021/09/27 10:34:14;;;;;;;4.28;3.75;;;40.40;44.60;;;;;;4990408;28;20203;-76
2021/09/27 10:36:58;;;;;;;4.15;3.40;;;40.60;43.00;;;;;;4997232;28;20185;-76
2021/09/27 10:39:25;;;;;;;5.47;3.78;;;40.70;43.70;;;;;;4998869;28;20197;-76
2021/09/27 10:42:03;;;;;;;5.57;4.20;;;40.60;44.30;;;;;;4991205;28;20556;-76
2021/09/27 10:44:40;;;;;;;5.35;3.35;;;40.80;43.50;;;;;;4993566;28;20197;-76
2021/09/27 10:47:37;;;;;;;4.10;3.88;;;41.10;42.50;;;;;;4995935;28;20235;-76
2021/09/27 10:50:32;;;;;;;3.85;3.63;;;41.40;41.20;;;;;;4934852;29;20234;-76
2021/09/27 10:53:06;;;;;;;2.55;2.55;;;41.40;42.00;;;;;;4932969;29;20433;-75
2021/09/27 10:55:44;;;;;;;3.53;2.85;;;41.10;41.80;;;;;;4933407;29;20260;-76
2021/09/27 10:58:11;;;;;;;2.63;2.63;;;40.60;43.20;;;;;;4949873;28;20204;-76
2021/09/27 11:00:49;;;;;;;3.10;2.90;;;40.40;43.10;;;;;;4961657;28;20193;-77
2021/09/27 11:03:21;;;;;;;2.85;2.75;;;40.50;43.30;;;;;;4962149;28;20701;-76
2021/09/27 11:06:16;;;;;;;2.92;2.70;;;40.60;42.20;;;;;;4961377;28;20190;-76
2021/09/27 11:08:45;;;;;;;5.07;2.65;;;40.50;41.60;;;;;;4960974;28;20189;-77
2021/09/27 11:11:58;;;;;;;3.20;3.00;;;40.60;42.80;;;;;;4961941;28;20260;-76
2021/09/27 11:14:26;;;;;;;2.83;2.72;;;40.80;41.00;;;;;;4945069;28;20199;-76
2021/09/27 11:16:59;;;;;;;5.38;2.92;;;41.00;43.00;;;;;;4946660;28;20591;-76
2021/09/27 11:19:33;;;;;;;2.70;2.60;;;41.00;41.70;;;;;;4944959;28;20198;-75
2021/09/27 11:22:14;;;;;;;3.10;2.70;;;41.10;42.70;;;;;;4945146;29;20186;-76
2021/09/27 11:25:05;;;;;;;4.18;3.17;;;41.40;42.20;;;;;;4944538;29;20187;-76
2021/09/27 11:27:35;;;;;;;2.58;2.58;;;41.70;41.50;;;;;;4998445;28;20224;-76
2021/09/27 11:30:36;;;;;;;3.45;2.78;;;42.00;42.50;;;;;;5001725;28;20905;-76
2021/09/27 11:33:03;;;;;;;2.72;2.53;;;42.30;41.50;;;;;;5001794;28;20245;-76
2021/09/27 11:35:45;;;;;;;3.88;2.83;;;42.50;41.60;;;;;;5001173;28;20246;-76
2021/09/27 11:38:31;;;;;;;3.90;2.70;;;42.70;40.80;;;;;;5001602;28;20223;-76
2021/09/27 11:41:19;;;;;;;3.17;2.45;;;42.70;41.00;;;;;;5002157;28;20271;-75
2021/09/27 11:44:12;;;;;;;2.95;2.85;;;42.70;40.00;;;;;;5001011;28;20203;-75
2021/09/27 11:46:44;;;;;;;2.97;2.88;;;42.30;39.10;;;;;;5001449;28;20208;-74
2021/09/27 11:49:24;;;;;;;2.70;2.65;;;41.90;41.10;;;;;;5002150;28;20180;-75
2021/09/27 11:52:20;;;;;;;3.05;2.80;;;41.70;40.30;;;;;;5008442;28;20187;-75
2021/09/27 11:54:48;;;;;;;2.92;2.72;;;41.50;40.20;;;;;;5007899;28;20201;-74
2021/09/27 11:57:16;;;;;;;4.00;2.72;;;41.40;40.60;;;;;;5013160;28;20184;-76
2021/09/27 12:00:00;;;;;;;3.80;2.80;;;41.30;41.90;;;;;;5012961;28;20210;-75
2021/09/27 12:02:29;;;;;;;2.60;2.45;;;41.40;41.10;;;;;;5013575;28;20733;-75
2021/09/27 12:05:14;;;;;;;4.20;3.25;;;41.50;41.90;;;;;;5015196;28;20657;-75
2021/09/27 12:07:48;;;;;;;2.58;2.47;;;41.40;40.20;;;;;;5011044;28;20243;-75
2021/09/27 12:10:16;;;;;;;2.83;2.65;;;41.50;41.90;;;;;;5015588;28;20268;-75
2021/09/27 12:13:10;;;;;;;2.78;2.58;;;41.60;41.80;;;;;;5016850;28;20695;-76
2021/09/27 12:15:40;;;;;;;2.75;2.65;;;41.90;40.30;;;;;;5013788;28;20200;-76
2021/09/27 12:18:07;;;;;;;2.47;2.38;;;42.10;41.80;;;;;;5003827;28;20184;-76
2021/09/27 12:20:40;;;;;;;2.80;2.70;;;42.30;40.70;;;;;;5009645;28;20859;-76
2021/09/27 12:23:10;;;;;;;2.63;2.53;;;42.40;40.80;;;;;;5012361;28;20773;-75
2021/09/27 12:25:41;;;;;;;5.50;3.05;;;42.60;41.30;;;;;;5008759;28;20843;-75
2021/09/27 12:28:13;;;;;;;3.20;3.00;;;42.50;39.40;;;;;;5012445;28;20230;-75
2021/09/27 12:30:43;;;;;;;2.50;2.28;;;42.10;40.10;;;;;;5010591;28;20184;-77
2021/09/27 12:33:25;;;;;;;2.95;2.85;;;42.00;40.70;;;;;;5008994;28;20196;-77
2021/09/27 12:35:59;;;;;;;2.38;2.38;;;42.00;40.20;;;;;;5014284;28;20237;-77
2021/09/27 12:38:25;;;;;;;2.58;2.47;;;42.00;40.90;;;;;;5013742;28;20283;-77
2021/09/27 12:40:53;;;;;;;2.60;2.60;;;42.10;41.10;;;;;;5009750;28;20349;-77
2021/09/27 12:43:29;;;;;;;2.58;2.47;;;42.20;40.50;;;;;;5012127;28;20214;-77
2021/09/27 12:46:17;;;;;;;3.28;3.13;;;42.30;41.00;;;;;;5011227;28;20192;-77
2021/09/27 12:48:53;;;;;;;2.67;2.55;;;42.30;40.00;;;;;;5007917;28;20212;-77
2021/09/27 12:51:33;;;;;;;3.10;2.88;;;42.30;40.60;;;;;;5015538;28;20322;-77
2021/09/27 12:54:04;;;;;;;2.85;2.75;;;42.20;40.60;;;;;;5010104;28;20184;-77
2021/09/27 12:56:32;;;;;;;2.70;2.50;;;42.30;39.90;;;;;;5017117;28;20188;-77
2021/09/27 12:59:00;;;;;;;2.83;2.63;;;42.20;40.30;;;;;;5010316;28;20706;-76
2021/09/27 13:01:28;;;;;;;5.32;2.92;;;42.20;40.10;;;;;;5014820;28;20184;-76
2021/09/27 13:04:13;;;;;;;4.13;3.00;;;42.30;40.60;;;;;;5017575;28;20184;-76
2021/09/27 13:07:00;;;;;;;4.72;3.20;;;42.30;40.00;;;;;;5012380;28;20219;-76
2021/09/27 13:09:34;;;;;;;2.72;2.63;;;42.30;39.50;;;;;;5015925;28;20183;-76
2021/09/27 13:12:26;;;;;;;3.10;2.97;;;42.30;39.90;;;;;;5015079;28;20282;-76
2021/09/27 13:14:58;;;;;;;3.20;3.00;;;42.10;38.50;;;;;;5013851;28;20192;-76
2021/09/27 13:17:29;;;;;;;4.78;2.85;;;41.90;40.00;;;;;;5011879;28;20215;-76
2021/09/27 13:20:01;;;;;;;3.17;2.95;;;41.50;40.50;;;;;;5008799;28;20195;-76
2021/09/27 13:22:30;;;;;;;3.35;2.70;;;41.10;40.50;;;;;;5022578;28;20738;-76
2021/09/27 13:25:12;;;;;;;7.72;2.80;;;40.80;40.80;;;;;;5008867;28;20192;-75
2021/09/27 13:27:55;;;;;;;3.72;2.88;;;40.30;40.40;;;;;;5010232;28;20218;-75
2021/09/27 13:30:27;;;;;;;6.90;2.75;;;39.30;39.80;;;;;;5011970;28;20184;-76
2021/09/27 13:32:52;;;;;;;8.80;3.38;;;38.70;41.70;;;;;;5015045;28;20219;-76
2021/09/27 13:35:21;;;;;;;4.60;2.97;;;38.30;42.60;;;;;;5011940;28;20212;-76
2021/09/27 13:38:15;;;;;;;3.85;3.55;;;38.30;42.50;;;;;;5008928;28;20196;-76